sensor_id;sensor_type;location;lat;lon;timestamp;P1;durP1;ratioP1;P2;durP2;ratioP2
13564;SDS011;6854;48.096;11.278;2022-12-15T03:22:23;36.33;;;12.43;;
13564;SDS011;6854;48.096;11.278;2022-12-15T03:24:59;34.17;;;13.40;;
13564;SDS011;6854;48.096;11.278;2022-12-15T03:31:02;39.97;;;14.00;;
13564;SDS011;6854;48.096;11.278;2022-12-15T03:33:37;32.60;;;13.33;;
13564;SDS011;6854;48.096;11.278;2022-12-15T03:36:06;38.70;;;15.17;;
13564;SDS011;6854;48.096;11.278;2022-12-15T03:39:17;39.53;;;14.87;;
13564;SDS011;6854;48.096;11.278;2022-12-15T03:41:57;38.40;;;14.43;;
13564;SDS011;6854;48.096;11.278;2022-12-15T03:48:22;47.63;;;15.80;;
13564;SDS011;6854;48.096;11.278;2022-12-15T03:50:59;38.00;;;12.93;;
13564;SDS011;6854;48.096;11.278;2022-12-15T07:21:46;39.67;;;15.03;;
13564;SDS011;6854;48.096;11.278;2022-12-15T07:30:23;43.63;;;17.80;;
13564;SDS011;6854;48.096;11.278;2022-12-15T07:39:22;55.07;;;18.50;;
13564;SDS011;6854;48.096;11.278;2022-12-15T07:42:12;40.00;;;16.60;;
13564;SDS011;6854;48.096;11.278;2022-12-15T07:44:38;41.83;;;16.63;;
13564;SDS011;6854;48.096;11.278;2022-12-15T07:47:24;37.03;;;15.83;;
13564;SDS011;6854;48.096;11.278;2022-12-15T07:50:44;50.93;;;17.67;;
13564;SDS011;6854;48.096;11.278;2022-12-15T08:00:14;52.03;;;18.90;;
13564;SDS011;6854;48.096;11.278;2022-12-15T08:03:47;40.97;;;16.73;;
13564;SDS011;6854;48.096;11.278;2022-12-15T08:06:49;59.33;;;19.30;;
13564;SDS011;6854;48.096;11.278;2022-12-15T08:09:55;48.63;;;17.40;;
13564;SDS011;6854;48.096;11.278;2022-12-15T08:13:37;38.03;;;14.23;;
13564;SDS011;6854;48.096;11.278;2022-12-15T08:29:37;46.00;;;16.33;;
13564;SDS011;6854;48.096;11.278;2022-12-15T08:32:29;52.30;;;16.33;;
13564;SDS011;6854;48.096;11.278;2022-12-15T08:35:01;44.07;;;16.53;;
13564;SDS011;6854;48.096;11.278;2022-12-15T08:37:30;59.67;;;17.83;;
13564;SDS011;6854;48.096;11.278;2022-12-15T08:40:05;54.77;;;16.50;;
13564;SDS011;6854;48.096;11.278;2022-12-15T08:42:33;46.27;;;17.70;;
13564;SDS011;6854;48.096;11.278;2022-12-15T08:45:08;43.07;;;16.60;;
13564;SDS011;6854;48.096;11.278;2022-12-15T08:47:41;40.17;;;15.73;;
13564;SDS011;6854;48.096;11.278;2022-12-15T08:50:10;47.97;;;18.43;;
13564;SDS011;6854;48.096;11.278;2022-12-15T08:52:41;44.37;;;17.37;;
13564;SDS011;6854;48.096;11.278;2022-12-15T08:55:08;35.93;;;16.87;;
13564;SDS011;6854;48.096;11.278;2022-12-15T08:57:47;38.50;;;15.40;;
13564;SDS011;6854;48.096;11.278;2022-12-15T09:00:35;41.00;;;17.17;;
13564;SDS011;6854;48.096;11.278;2022-12-15T09:03:08;38.97;;;14.80;;
13564;SDS011;6854;48.096;11.278;2022-12-15T09:12:04;40.50;;;15.10;;
13564;SDS011;6854;48.096;11.278;2022-12-15T09:14:56;33.40;;;14.20;;
13564;SDS011;6854;48.096;11.278;2022-12-15T09:18:19;44.43;;;16.57;;
13564;SDS011;6854;48.096;11.278;2022-12-15T09:20:47;37.60;;;16.40;;
13564;SDS011;6854;48.096;11.278;2022-12-15T09:23:15;38.40;;;15.37;;
13564;SDS011;6854;48.096;11.278;2022-12-15T09:25:57;38.30;;;15.50;;
13564;SDS011;6854;48.096;11.278;2022-12-15T09:28:26;41.90;;;17.33;;
13564;SDS011;6854;48.096;11.278;2022-12-15T09:34:25;38.50;;;14.33;;
13564;SDS011;6854;48.096;11.278;2022-12-15T09:37:59;37.77;;;16.33;;
13564;SDS011;6854;48.096;11.278;2022-12-15T09:40:37;42.73;;;16.00;;
13564;SDS011;6854;48.096;11.278;2022-12-15T09:43:03;41.83;;;15.83;;
13564;SDS011;6854;48.096;11.278;2022-12-15T09:45:31;45.60;;;15.77;;
13564;SDS011;6854;48.096;11.278;2022-12-15T09:48:08;46.13;;;18.80;;
13564;SDS011;6854;48.096;11.278;2022-12-15T09:50:52;39.07;;;16.20;;
13564;SDS011;6854;48.096;11.278;2022-12-15T09:53:26;44.30;;;17.17;;
13564;SDS011;6854;48.096;11.278;2022-12-15T09:55:56;44.87;;;16.83;;
13564;SDS011;6854;48.096;11.278;2022-12-15T10:09:50;41.20;;;15.13;;
13564;SDS011;6854;48.096;11.278;2022-12-15T10:16:01;43.20;;;15.47;;
13564;SDS011;6854;48.096;11.278;2022-12-15T10:18:31;41.53;;;16.23;;
13564;SDS011;6854;48.096;11.278;2022-12-15T10:21:05;36.20;;;14.77;;
13564;SDS011;6854;48.096;11.278;2022-12-15T10:23:38;35.07;;;15.50;;
13564;SDS011;6854;48.096;11.278;2022-12-15T10:26:14;48.67;;;16.80;;
13564;SDS011;6854;48.096;11.278;2022-12-15T10:50:16;42.50;;;16.13;;
13564;SDS011;6854;48.096;11.278;2022-12-15T15:17:44;83.90;;;26.07;;
13564;SDS011;6854;48.096;11.278;2022-12-15T15:20:54;90.10;;;26.53;;
13564;SDS011;6854;48.096;11.278;2022-12-15T15:23:34;81.00;;;26.00;;
13564;SDS011;6854;48.096;11.278;2022-12-15T15:26:14;77.67;;;25.63;;
13564;SDS011;6854;48.096;11.278;2022-12-15T15:28:41;84.73;;;26.83;;
13564;SDS011;6854;48.096;11.278;2022-12-15T15:33:51;76.13;;;25.83;;
13564;SDS011;6854;48.096;11.278;2022-12-15T15:36:18;96.03;;;29.73;;
13564;SDS011;6854;48.096;11.278;2022-12-15T15:38:50;89.93;;;26.30;;
13564;SDS011;6854;48.096;11.278;2022-12-15T15:52:01;78.50;;;23.97;;
13564;SDS011;6854;48.096;11.278;2022-12-15T15:55:13;76.80;;;26.30;;
13564;SDS011;6854;48.096;11.278;2022-12-15T15:58:07;121.50;;;38.20;;
13564;SDS011;6854;48.096;11.278;2022-12-15T16:00:43;80.13;;;26.50;;
13564;SDS011;6854;48.096;11.278;2022-12-15T16:03:12;68.47;;;25.70;;
13564;SDS011;6854;48.096;11.278;2022-12-15T16:05:40;78.70;;;25.27;;
13564;SDS011;6854;48.096;11.278;2022-12-15T16:08:18;87.27;;;27.20;;
13564;SDS011;6854;48.096;11.278;2022-12-15T16:11:00;76.37;;;25.47;;
13564;SDS011;6854;48.096;11.278;2022-12-15T16:19:31;75.60;;;26.33;;
13564;SDS011;6854;48.096;11.278;2022-12-15T16:21:59;82.07;;;26.90;;
13564;SDS011;6854;48.096;11.278;2022-12-15T16:24:25;86.27;;;26.30;;
13564;SDS011;6854;48.096;11.278;2022-12-15T16:27:02;87.87;;;27.80;;
13564;SDS011;6854;48.096;11.278;2022-12-15T16:29:28;76.77;;;26.77;;
13564;SDS011;6854;48.096;11.278;2022-12-15T16:31:54;84.60;;;26.30;;
13564;SDS011;6854;48.096;11.278;2022-12-15T16:34:20;84.50;;;26.07;;
13564;SDS011;6854;48.096;11.278;2022-12-15T16:36:51;100.93;;;25.27;;
13564;SDS011;6854;48.096;11.278;2022-12-15T16:41:55;84.47;;;25.07;;
13564;SDS011;6854;48.096;11.278;2022-12-15T16:44:21;91.73;;;27.57;;
13564;SDS011;6854;48.096;11.278;2022-12-15T16:46:49;105.20;;;27.60;;
13564;SDS011;6854;48.096;11.278;2022-12-15T16:49:15;81.30;;;25.23;;
13564;SDS011;6854;48.096;11.278;2022-12-15T16:51:42;85.83;;;23.50;;
13564;SDS011;6854;48.096;11.278;2022-12-15T16:54:17;91.13;;;27.10;;
13564;SDS011;6854;48.096;11.278;2022-12-15T16:56:51;93.73;;;27.87;;
13564;SDS011;6854;48.096;11.278;2022-12-15T16:59:19;80.43;;;24.77;;
13564;SDS011;6854;48.096;11.278;2022-12-15T17:01:46;75.83;;;25.10;;
13564;SDS011;6854;48.096;11.278;2022-12-15T17:04:12;83.83;;;24.27;;
13564;SDS011;6854;48.096;11.278;2022-12-15T17:06:43;81.23;;;25.67;;
13564;SDS011;6854;48.096;11.278;2022-12-15T17:09:11;84.63;;;27.70;;
